sensor_id;sensor_type;location;lat;lon;timestamp;P1;durP1;ratioP1;P2;durP2;ratioP2
58338;SDS011;68636;52.704;6.536;2023-06-24T00:01:50;12.32;;;6.45;;
58338;SDS011;68636;52.704;6.536;2023-06-24T00:04:16;10.50;;;6.75;;
58338;SDS011;68636;52.704;6.536;2023-06-24T00:06:44;13.98;;;6.57;;
58338;SDS011;68636;52.704;6.536;2023-06-24T00:09:10;11.93;;;6.37;;
58338;SDS011;68636;52.704;6.536;2023-06-24T00:11:35;12.68;;;7.15;;
58338;SDS011;68636;52.704;6.536;2023-06-24T00:14:04;10.95;;;6.82;;
58338;SDS011;68636;52.704;6.536;2023-06-24T00:16:31;11.60;;;6.70;;
58338;SDS011;68636;52.704;6.536;2023-06-24T00:18:57;10.93;;;7.33;;
58338;SDS011;68636;52.704;6.536;2023-06-24T00:21:25;11.75;;;7.28;;
58338;SDS011;68636;52.704;6.536;2023-06-24T00:23:55;15.02;;;8.35;;
58338;SDS011;68636;52.704;6.536;2023-06-24T00:26:22;14.05;;;8.15;;
58338;SDS011;68636;52.704;6.536;2023-06-24T00:28:48;14.77;;;8.52;;
58338;SDS011;68636;52.704;6.536;2023-06-24T00:31:13;13.88;;;7.82;;
58338;SDS011;68636;52.704;6.536;2023-06-24T00:33:39;15.60;;;8.80;;
58338;SDS011;68636;52.704;6.536;2023-06-24T00:36:05;13.97;;;7.90;;
58338;SDS011;68636;52.704;6.536;2023-06-24T00:38:37;14.52;;;8.30;;
58338;SDS011;68636;52.704;6.536;2023-06-24T00:41:03;12.00;;;7.68;;
58338;SDS011;68636;52.704;6.536;2023-06-24T00:43:29;10.55;;;7.13;;
58338;SDS011;68636;52.704;6.536;2023-06-24T00:45:56;12.07;;;7.13;;
58338;SDS011;68636;52.704;6.536;2023-06-24T00:48:22;11.48;;;7.18;;
58338;SDS011;68636;52.704;6.536;2023-06-24T00:50:49;12.00;;;6.95;;
58338;SDS011;68636;52.704;6.536;2023-06-24T00:53:16;10.45;;;6.57;;
58338;SDS011;68636;52.704;6.536;2023-06-24T00:55:42;13.15;;;6.63;;
58338;SDS011;68636;52.704;6.536;2023-06-24T01:00:34;15.70;;;7.40;;
58338;SDS011;68636;52.704;6.536;2023-06-24T01:03:00;13.38;;;7.47;;
58338;SDS011;68636;52.704;6.536;2023-06-24T01:05:28;13.85;;;8.05;;
58338;SDS011;68636;52.704;6.536;2023-06-24T01:10:21;13.20;;;7.70;;
58338;SDS011;68636;52.704;6.536;2023-06-24T01:12:48;13.65;;;8.50;;
58338;SDS011;68636;52.704;6.536;2023-06-24T01:15:14;15.60;;;8.47;;
58338;SDS011;68636;52.704;6.536;2023-06-24T01:34:06;14.38;;;8.57;;
58338;SDS011;68636;52.704;6.536;2023-06-24T01:36:27;14.00;;;8.48;;
58338;SDS011;68636;52.704;6.536;2023-06-24T01:39:01;13.52;;;8.43;;
58338;SDS011;68636;52.704;6.536;2023-06-24T01:41:32;14.43;;;8.85;;
58338;SDS011;68636;52.704;6.536;2023-06-24T01:44:02;12.93;;;8.70;;
58338;SDS011;68636;52.704;6.536;2023-06-24T01:46:30;14.35;;;8.38;;
58338;SDS011;68636;52.704;6.536;2023-06-24T01:48:58;16.30;;;9.20;;
58338;SDS011;68636;52.704;6.536;2023-06-24T01:51:27;16.80;;;9.52;;
58338;SDS011;68636;52.704;6.536;2023-06-24T01:54:00;13.98;;;9.05;;
58338;SDS011;68636;52.704;6.536;2023-06-24T01:56:28;17.95;;;9.70;;
58338;SDS011;68636;52.704;6.536;2023-06-24T01:58:55;17.08;;;9.48;;
58338;SDS011;68636;52.704;6.536;2023-06-24T02:01:25;15.80;;;9.05;;
58338;SDS011;68636;52.704;6.536;2023-06-24T02:03:51;15.98;;;9.05;;
58338;SDS011;68636;52.704;6.536;2023-06-24T02:06:18;13.60;;;8.70;;
58338;SDS011;68636;52.704;6.536;2023-06-24T02:08:45;14.32;;;8.68;;
58338;SDS011;68636;52.704;6.536;2023-06-24T02:11:13;14.70;;;8.75;;
58338;SDS011;68636;52.704;6.536;2023-06-24T02:13:40;15.50;;;9.57;;
58338;SDS011;68636;52.704;6.536;2023-06-24T02:16:08;17.67;;;9.93;;
58338;SDS011;68636;52.704;6.536;2023-06-24T02:18:35;18.77;;;9.13;;
58338;SDS011;68636;52.704;6.536;2023-06-24T02:21:07;15.80;;;9.55;;
58338;SDS011;68636;52.704;6.536;2023-06-24T02:23:35;15.13;;;8.98;;
58338;SDS011;68636;52.704;6.536;2023-06-24T02:26:02;12.95;;;8.30;;
58338;SDS011;68636;52.704;6.536;2023-06-24T02:28:30;19.05;;;8.88;;
58338;SDS011;68636;52.704;6.536;2023-06-24T02:30:58;16.25;;;9.15;;
58338;SDS011;68636;52.704;6.536;2023-06-24T02:33:24;16.45;;;9.63;;
58338;SDS011;68636;52.704;6.536;2023-06-24T02:38:17;14.93;;;9.05;;
58338;SDS011;68636;52.704;6.536;2023-06-24T02:40:43;17.05;;;9.63;;
58338;SDS011;68636;52.704;6.536;2023-06-24T02:43:10;15.10;;;9.75;;
58338;SDS011;68636;52.704;6.536;2023-06-24T02:45:36;18.50;;;9.77;;
58338;SDS011;68636;52.704;6.536;2023-06-24T02:48:03;16.65;;;9.30;;
58338;SDS011;68636;52.704;6.536;2023-06-24T02:50:30;16.83;;;10.05;;
58338;SDS011;68636;52.704;6.536;2023-06-24T02:52:58;17.15;;;10.02;;
58338;SDS011;68636;52.704;6.536;2023-06-24T02:55:25;16.48;;;10.38;;
58338;SDS011;68636;52.704;6.536;2023-06-24T03:00:18;16.65;;;10.15;;
58338;SDS011;68636;52.704;6.536;2023-06-24T03:02:45;14.70;;;9.55;;
58338;SDS011;68636;52.704;6.536;2023-06-24T03:05:13;16.77;;;10.32;;
58338;SDS011;68636;52.704;6.536;2023-06-24T03:07:40;17.20;;;10.38;;
58338;SDS011;68636;52.704;6.536;2023-06-24T03:10:07;17.17;;;10.15;;
58338;SDS011;68636;52.704;6.536;2023-06-24T03:12:33;18.73;;;10.30;;
58338;SDS011;68636;52.704;6.536;2023-06-24T03:14:59;16.90;;;10.60;;
58338;SDS011;68636;52.704;6.536;2023-06-24T03:17:28;16.95;;;10.80;;
58338;SDS011;68636;52.704;6.536;2023-06-24T03:19:54;17.52;;;10.38;;
58338;SDS011;68636;52.704;6.536;2023-06-24T03:22:21;18.60;;;10.38;;
58338;SDS011;68636;52.704;6.536;2023-06-24T03:29:39;18.27;;;10.03;;
58338;SDS011;68636;52.704;6.536;2023-06-24T03:32:05;18.48;;;11.02;;
58338;SDS011;68636;52.704;6.536;2023-06-24T03:34:31;23.37;;;11.20;;
58338;SDS011;68636;52.704;6.536;2023-06-24T03:36:57;20.70;;;11.35;;
58338;SDS011;68636;52.704;6.536;2023-06-24T03:39:23;21.83;;;11.02;;
58338;SDS011;68636;52.704;6.536;2023-06-24T03:41:48;19.17;;;10.40;;
58338;SDS011;68636;52.704;6.536;2023-06-24T03:44:14;19.58;;;11.10;;
58338;SDS011;68636;52.704;6.536;2023-06-24T03:46:40;19.35;;;10.93;;
58338;SDS011;68636;52.704;6.536;2023-06-24T03:49:06;20.20;;;11.25;;
58338;SDS011;68636;52.704;6.536;2023-06-24T03:51:32;18.93;;;10.27;;
58338;SDS011;68636;52.704;6.536;2023-06-24T03:53:58;19.10;;;11.25;;
58338;SDS011;68636;52.704;6.536;2023-06-24T03:56:23;17.38;;;10.35;;
58338;SDS011;68636;52.704;6.536;2023-06-24T03:58:49;18.13;;;10.90;;
58338;SDS011;68636;52.704;6.536;2023-06-24T04:01:15;20.00;;;10.73;;
58338;SDS011;68636;52.704;6.536;2023-06-24T04:03:44;15.82;;;9.90;;
58338;SDS011;68636;52.704;6.536;2023-06-24T04:06:10;18.65;;;9.85;;
58338;SDS011;68636;52.704;6.536;2023-06-24T04:08:36;19.17;;;10.63;;
58338;SDS011;68636;52.704;6.536;2023-06-24T04:11:05;18.27;;;10.60;;
58338;SDS011;68636;52.704;6.536;2023-06-24T04:13:32;17.45;;;10.55;;
58338;SDS011;68636;52.704;6.536;2023-06-24T04:15:58;21.20;;;11.00;;
58338;SDS011;68636;52.704;6.536;2023-06-24T04:18:24;18.55;;;11.38;;
58338;SDS011;68636;52.704;6.536;2023-06-24T04:20:50;20.37;;;12.63;;
58338;SDS011;68636;52.704;6.536;2023-06-24T04:23:15;20.30;;;11.82;;
58338;SDS011;68636;52.704;6.536;2023-06-24T04:25:41;18.43;;;11.20;;
58338;SDS011;68636;52.704;6.536;2023-06-24T04:28:07;19.13;;;11.67;;
58338;SDS011;68636;52.704;6.536;2023-06-24T04:30:34;19.13;;;11.02;;
58338;SDS011;68636;52.704;6.536;2023-06-24T04:33:03;18.40;;;11.25;;
58338;SDS011;68636;52.704;6.536;2023-06-24T04:35:30;19.30;;;12.15;;
58338;SDS011;68636;52.704;6.536;2023-06-24T04:37:55;19.63;;;11.40;;
58338;SDS011;68636;52.704;6.536;2023-06-24T04:40:21;19.05;;;11.82;;
58338;SDS011;68636;52.704;6.536;2023-06-24T04:42:47;19.30;;;11.73;;
58338;SDS011;68636;52.704;6.536;2023-06-24T04:45:13;18.45;;;11.20;;
58338;SDS011;68636;52.704;6.536;2023-06-24T04:47:39;23.70;;;12.35;;
58338;SDS011;68636;52.704;6.536;2023-06-24T04:50:05;20.35;;;12.13;;
58338;SDS011;68636;52.704;6.536;2023-06-24T04:52:31;18.98;;;11.95;;
58338;SDS011;68636;52.704;6.536;2023-06-24T04:54:57;22.83;;;12.93;;
58338;SDS011;68636;52.704;6.536;2023-06-24T04:57:23;22.33;;;12.00;;
58338;SDS011;68636;52.704;6.536;2023-06-24T04:59:53;26.50;;;13.15;;
58338;SDS011;68636;52.704;6.536;2023-06-24T05:02:19;21.77;;;13.65;;
58338;SDS011;68636;52.704;6.536;2023-06-24T05:04:45;21.65;;;12.52;;
58338;SDS011;68636;52.704;6.536;2023-06-24T05:07:11;23.10;;;12.77;;
58338;SDS011;68636;52.704;6.536;2023-06-24T05:09:37;20.40;;;12.53;;
58338;SDS011;68636;52.704;6.536;2023-06-24T05:12:04;24.50;;;12.90;;
58338;SDS011;68636;52.704;6.536;2023-06-24T05:14:30;21.45;;;12.65;;
58338;SDS011;68636;52.704;6.536;2023-06-24T05:16:56;21.52;;;13.13;;
58338;SDS011;68636;52.704;6.536;2023-06-24T05:19:22;23.97;;;12.93;;
58338;SDS011;68636;52.704;6.536;2023-06-24T05:21:47;22.42;;;12.82;;
58338;SDS011;68636;52.704;6.536;2023-06-24T05:24:13;20.48;;;12.52;;
58338;SDS011;68636;52.704;6.536;2023-06-24T05:26:39;21.97;;;12.47;;
58338;SDS011;68636;52.704;6.536;2023-06-24T05:29:05;19.80;;;12.45;;
58338;SDS011;68636;52.704;6.536;2023-06-24T05:31:30;20.87;;;12.67;;
58338;SDS011;68636;52.704;6.536;2023-06-24T05:33:56;19.97;;;12.53;;
58338;SDS011;68636;52.704;6.536;2023-06-24T05:36:22;20.30;;;12.20;;
58338;SDS011;68636;52.704;6.536;2023-06-24T05:38:47;20.42;;;12.27;;
58338;SDS011;68636;52.704;6.536;2023-06-24T05:41:14;17.07;;;11.50;;
58338;SDS011;68636;52.704;6.536;2023-06-24T05:43:42;17.45;;;11.00;;
58338;SDS011;68636;52.704;6.536;2023-06-24T05:46:08;19.40;;;11.38;;
58338;SDS011;68636;52.704;6.536;2023-06-24T05:48:34;16.80;;;10.90;;
58338;SDS011;68636;52.704;6.536;2023-06-24T05:51:00;16.53;;;10.20;;
58338;SDS011;68636;52.704;6.536;2023-06-24T05:53:25;17.85;;;11.27;;
58338;SDS011;68636;52.704;6.536;2023-06-24T05:55:51;16.50;;;11.00;;
58338;SDS011;68636;52.704;6.536;2023-06-24T05:58:17;18.40;;;11.20;;
58338;SDS011;68636;52.704;6.536;2023-06-24T06:00:43;16.60;;;10.90;;
58338;SDS011;68636;52.704;6.536;2023-06-24T06:03:08;18.20;;;11.17;;
58338;SDS011;68636;52.704;6.536;2023-06-24T06:05:34;17.43;;;11.23;;
58338;SDS011;68636;52.704;6.536;2023-06-24T06:08:00;15.30;;;10.80;;
58338;SDS011;68636;52.704;6.536;2023-06-24T06:10:26;19.97;;;11.03;;
58338;SDS011;68636;52.704;6.536;2023-06-24T06:12:51;17.47;;;10.10;;
58338;SDS011;68636;52.704;6.536;2023-06-24T06:15:18;17.02;;;10.77;;
58338;SDS011;68636;52.704;6.536;2023-06-24T06:17:45;18.90;;;10.82;;
58338;SDS011;68636;52.704;6.536;2023-06-24T06:20:11;17.60;;;10.65;;
58338;SDS011;68636;52.704;6.536;2023-06-24T06:22:37;17.30;;;10.27;;
58338;SDS011;68636;52.704;6.536;2023-06-24T06:25:06;14.18;;;9.40;;
58338;SDS011;68636;52.704;6.536;2023-06-24T06:27:33;17.52;;;10.05;;
58338;SDS011;68636;52.704;6.536;2023-06-24T06:29:59;17.60;;;9.63;;
58338;SDS011;68636;52.704;6.536;2023-06-24T06:32:24;14.37;;;8.97;;
58338;SDS011;68636;52.704;6.536;2023-06-24T06:34:50;16.80;;;8.93;;
58338;SDS011;68636;52.704;6.536;2023-06-24T06:37:16;14.77;;;8.87;;
58338;SDS011;68636;52.704;6.536;2023-06-24T06:39:42;13.53;;;8.40;;
58338;SDS011;68636;52.704;6.536;2023-06-24T06:42:07;16.10;;;8.47;;
58338;SDS011;68636;52.704;6.536;2023-06-24T06:44:33;14.57;;;8.53;;
58338;SDS011;68636;52.704;6.536;2023-06-24T06:46:59;15.23;;;8.47;;
58338;SDS011;68636;52.704;6.536;2023-06-24T06:49:25;14.87;;;8.33;;
58338;SDS011;68636;52.704;6.536;2023-06-24T06:51:53;12.80;;;7.83;;
58338;SDS011;68636;52.704;6.536;2023-06-24T06:54:20;15.80;;;8.35;;
58338;SDS011;68636;52.704;6.536;2023-06-24T06:56:46;13.60;;;8.67;;
58338;SDS011;68636;52.704;6.536;2023-06-24T06:59:11;17.10;;;9.10;;
58338;SDS011;68636;52.704;6.536;2023-06-24T07:01:37;17.00;;;9.63;;
58338;SDS011;68636;52.704;6.536;2023-06-24T07:04:03;17.50;;;9.00;;
58338;SDS011;68636;52.704;6.536;2023-06-24T07:06:30;14.73;;;9.10;;
58338;SDS011;68636;52.704;6.536;2023-06-24T07:08:57;15.70;;;9.70;;
58338;SDS011;68636;52.704;6.536;2023-06-24T07:11:23;18.77;;;10.35;;
58338;SDS011;68636;52.704;6.536;2023-06-24T07:13:49;15.33;;;9.77;;
58338;SDS011;68636;52.704;6.536;2023-06-24T07:16:16;15.63;;;9.55;;
58338;SDS011;68636;52.704;6.536;2023-06-24T07:21:08;17.48;;;9.80;;
58338;SDS011;68636;52.704;6.536;2023-06-24T07:23:34;14.83;;;9.87;;
58338;SDS011;68636;52.704;6.536;2023-06-24T07:26:00;19.07;;;10.17;;
58338;SDS011;68636;52.704;6.536;2023-06-24T07:28:25;17.47;;;10.13;;
58338;SDS011;68636;52.704;6.536;2023-06-24T07:30:51;17.00;;;10.10;;
58338;SDS011;68636;52.704;6.536;2023-06-24T07:33:17;17.77;;;10.03;;
58338;SDS011;68636;52.704;6.536;2023-06-24T07:35:43;16.73;;;9.83;;
58338;SDS011;68636;52.704;6.536;2023-06-24T07:38:08;16.23;;;9.67;;
58338;SDS011;68636;52.704;6.536;2023-06-24T07:40:34;17.13;;;9.87;;
58338;SDS011;68636;52.704;6.536;2023-06-24T07:43:00;17.27;;;9.80;;
58338;SDS011;68636;52.704;6.536;2023-06-24T07:45:26;14.43;;;9.70;;
58338;SDS011;68636;52.704;6.536;2023-06-24T07:47:51;18.57;;;9.57;;
58338;SDS011;68636;52.704;6.536;2023-06-24T07:50:17;13.37;;;8.83;;
58338;SDS011;68636;52.704;6.536;2023-06-24T07:52:43;14.83;;;8.50;;
58338;SDS011;68636;52.704;6.536;2023-06-24T07:55:09;15.30;;;8.90;;
58338;SDS011;68636;52.704;6.536;2023-06-24T07:57:36;15.88;;;8.30;;
58338;SDS011;68636;52.704;6.536;2023-06-24T08:00:02;17.47;;;8.57;;
58338;SDS011;68636;52.704;6.536;2023-06-24T08:04:54;15.05;;;9.30;;
58338;SDS011;68636;52.704;6.536;2023-06-24T08:07:19;14.60;;;8.17;;
58338;SDS011;68636;52.704;6.536;2023-06-24T08:09:45;15.60;;;9.57;;
58338;SDS011;68636;52.704;6.536;2023-06-24T08:12:11;15.83;;;8.60;;
58338;SDS011;68636;52.704;6.536;2023-06-24T08:14:37;15.53;;;9.07;;
58338;SDS011;68636;52.704;6.536;2023-06-24T08:17:02;15.03;;;8.47;;
58338;SDS011;68636;52.704;6.536;2023-06-24T08:19:28;15.00;;;9.05;;
58338;SDS011;68636;52.704;6.536;2023-06-24T08:21:54;14.50;;;8.97;;
58338;SDS011;68636;52.704;6.536;2023-06-24T08:24:20;15.90;;;8.87;;
58338;SDS011;68636;52.704;6.536;2023-06-24T08:26:46;16.60;;;10.33;;
58338;SDS011;68636;52.704;6.536;2023-06-24T08:29:11;14.43;;;8.50;;
58338;SDS011;68636;52.704;6.536;2023-06-24T08:31:37;15.73;;;8.50;;
58338;SDS011;68636;52.704;6.536;2023-06-24T08:34:03;14.63;;;7.63;;
58338;SDS011;68636;52.704;6.536;2023-06-24T08:36:30;16.58;;;7.43;;
58338;SDS011;68636;52.704;6.536;2023-06-24T08:38:56;14.27;;;7.53;;
58338;SDS011;68636;52.704;6.536;2023-06-24T08:41:22;12.15;;;6.75;;
58338;SDS011;68636;52.704;6.536;2023-06-24T08:43:50;11.85;;;6.50;;
58338;SDS011;68636;52.704;6.536;2023-06-24T08:46:16;10.70;;;6.05;;
58338;SDS011;68636;52.704;6.536;2023-06-24T08:48:44;11.10;;;5.88;;
58338;SDS011;68636;52.704;6.536;2023-06-24T08:51:13;11.45;;;5.63;;
58338;SDS011;68636;52.704;6.536;2023-06-24T08:53:42;11.90;;;5.90;;
58338;SDS011;68636;52.704;6.536;2023-06-24T08:56:09;10.65;;;5.60;;
58338;SDS011;68636;52.704;6.536;2023-06-24T08:58:35;12.18;;;5.13;;
58338;SDS011;68636;52.704;6.536;2023-06-24T09:01:01;7.47;;;3.97;;
58338;SDS011;68636;52.704;6.536;2023-06-24T09:03:27;12.18;;;4.30;;
58338;SDS011;68636;52.704;6.536;2023-06-24T09:05:53;8.00;;;4.07;;
58338;SDS011;68636;52.704;6.536;2023-06-24T09:08:19;9.45;;;4.97;;
58338;SDS011;68636;52.704;6.536;2023-06-24T09:10:47;10.50;;;5.05;;
58338;SDS011;68636;52.704;6.536;2023-06-24T09:13:19;12.48;;;4.82;;
58338;SDS011;68636;52.704;6.536;2023-06-24T09:15:45;8.27;;;4.57;;
58338;SDS011;68636;52.704;6.536;2023-06-24T09:18:11;8.20;;;4.57;;
58338;SDS011;68636;52.704;6.536;2023-06-24T09:20:37;6.93;;;3.38;;
58338;SDS011;68636;52.704;6.536;2023-06-24T09:23:09;8.98;;;3.00;;
58338;SDS011;68636;52.704;6.536;2023-06-24T09:25:35;6.70;;;3.00;;
58338;SDS011;68636;52.704;6.536;2023-06-24T09:30:28;8.00;;;2.45;;
58338;SDS011;68636;52.704;6.536;2023-06-24T09:32:54;7.88;;;2.70;;
58338;SDS011;68636;52.704;6.536;2023-06-24T09:35:22;7.15;;;3.53;;
58338;SDS011;68636;52.704;6.536;2023-06-24T09:37:58;5.75;;;2.80;;
58338;SDS011;68636;52.704;6.536;2023-06-24T09:40:24;5.72;;;2.47;;
58338;SDS011;68636;52.704;6.536;2023-06-24T09:42:54;6.17;;;2.47;;
58338;SDS011;68636;52.704;6.536;2023-06-24T09:45:24;7.05;;;3.38;;
58338;SDS011;68636;52.704;6.536;2023-06-24T09:47:51;6.78;;;3.72;;
58338;SDS011;68636;52.704;6.536;2023-06-24T09:52:44;7.82;;;3.70;;
58338;SDS011;68636;52.704;6.536;2023-06-24T09:55:13;7.30;;;3.30;;
58338;SDS011;68636;52.704;6.536;2023-06-24T09:57:46;8.93;;;3.85;;
58338;SDS011;68636;52.704;6.536;2023-06-24T10:00:15;7.90;;;4.28;;
58338;SDS011;68636;52.704;6.536;2023-06-24T10:02:44;6.65;;;3.97;;
58338;SDS011;68636;52.704;6.536;2023-06-24T10:05:11;8.32;;;4.38;;
58338;SDS011;68636;52.704;6.536;2023-06-24T10:07:40;9.23;;;4.50;;
58338;SDS011;68636;52.704;6.536;2023-06-24T10:12:33;7.47;;;4.53;;
58338;SDS011;68636;52.704;6.536;2023-06-24T10:15:00;9.95;;;4.47;;
58338;SDS011;68636;52.704;6.536;2023-06-24T10:17:27;11.35;;;4.88;;
58338;SDS011;68636;52.704;6.536;2023-06-24T10:19:53;9.48;;;4.93;;
58338;SDS011;68636;52.704;6.536;2023-06-24T10:22:21;10.43;;;5.13;;
58338;SDS011;68636;52.704;6.536;2023-06-24T10:24:51;10.32;;;5.85;;
58338;SDS011;68636;52.704;6.536;2023-06-24T10:27:18;9.77;;;4.93;;
58338;SDS011;68636;52.704;6.536;2023-06-24T10:29:50;8.77;;;4.60;;
58338;SDS011;68636;52.704;6.536;2023-06-24T10:32:17;8.45;;;4.25;;
58338;SDS011;68636;52.704;6.536;2023-06-24T10:34:44;9.93;;;4.72;;
58338;SDS011;68636;52.704;6.536;2023-06-24T10:47:35;7.60;;;3.08;;
58338;SDS011;68636;52.704;6.536;2023-06-24T10:50:04;6.88;;;3.40;;
58338;SDS011;68636;52.704;6.536;2023-06-24T10:52:30;6.55;;;3.63;;
58338;SDS011;68636;52.704;6.536;2023-06-24T10:54:56;7.50;;;3.67;;
58338;SDS011;68636;52.704;6.536;2023-06-24T10:57:27;7.85;;;3.58;;
58338;SDS011;68636;52.704;6.536;2023-06-24T10:59:55;7.55;;;3.10;;
58338;SDS011;68636;52.704;6.536;2023-06-24T11:02:22;5.78;;;3.03;;
58338;SDS011;68636;52.704;6.536;2023-06-24T11:04:50;6.75;;;3.00;;
58338;SDS011;68636;52.704;6.536;2023-06-24T11:07:20;6.43;;;3.40;;
58338;SDS011;68636;52.704;6.536;2023-06-24T11:09:48;6.00;;;3.47;;
58338;SDS011;68636;52.704;6.536;2023-06-24T11:12:15;5.60;;;2.38;;
58338;SDS011;68636;52.704;6.536;2023-06-24T11:14:41;6.63;;;2.80;;
58338;SDS011;68636;52.704;6.536;2023-06-24T11:17:06;7.50;;;3.37;;
58338;SDS011;68636;52.704;6.536;2023-06-24T11:19:32;5.10;;;2.70;;
58338;SDS011;68636;52.704;6.536;2023-06-24T11:21:59;6.35;;;3.10;;
58338;SDS011;68636;52.704;6.536;2023-06-24T11:24:26;5.97;;;2.78;;
58338;SDS011;68636;52.704;6.536;2023-06-24T11:26:55;7.38;;;3.22;;
58338;SDS011;68636;52.704;6.536;2023-06-24T11:29:22;9.45;;;3.28;;
58338;SDS011;68636;52.704;6.536;2023-06-24T11:31:48;7.00;;;2.95;;
58338;SDS011;68636;52.704;6.536;2023-06-24T11:34:15;7.05;;;3.15;;
58338;SDS011;68636;52.704;6.536;2023-06-24T11:36:41;8.20;;;3.60;;
58338;SDS011;68636;52.704;6.536;2023-06-24T11:39:07;9.43;;;3.42;;
58338;SDS011;68636;52.704;6.536;2023-06-24T11:41:33;9.85;;;4.20;;
58338;SDS011;68636;52.704;6.536;2023-06-24T11:43:58;6.82;;;3.45;;
58338;SDS011;68636;52.704;6.536;2023-06-24T11:46:25;5.25;;;2.72;;
58338;SDS011;68636;52.704;6.536;2023-06-24T11:48:52;10.23;;;2.97;;
58338;SDS011;68636;52.704;6.536;2023-06-24T11:51:18;6.22;;;2.75;;
58338;SDS011;68636;52.704;6.536;2023-06-24T11:56:11;6.70;;;2.67;;
58338;SDS011;68636;52.704;6.536;2023-06-24T12:03:32;6.40;;;2.67;;
58338;SDS011;68636;52.704;6.536;2023-06-24T12:05:59;6.25;;;2.80;;
58338;SDS011;68636;52.704;6.536;2023-06-24T12:08:25;7.60;;;3.20;;
58338;SDS011;68636;52.704;6.536;2023-06-24T12:10:51;6.28;;;3.20;;
58338;SDS011;68636;52.704;6.536;2023-06-24T12:13:17;9.68;;;3.20;;
58338;SDS011;68636;52.704;6.536;2023-06-24T12:15:43;9.40;;;3.28;;
58338;SDS011;68636;52.704;6.536;2023-06-24T12:18:08;7.70;;;3.20;;
58338;SDS011;68636;52.704;6.536;2023-06-24T12:20:35;5.93;;;3.28;;
58338;SDS011;68636;52.704;6.536;2023-06-24T12:23:02;6.55;;;3.47;;
58338;SDS011;68636;52.704;6.536;2023-06-24T12:25:31;6.38;;;3.30;;
58338;SDS011;68636;52.704;6.536;2023-06-24T12:27:57;7.43;;;3.25;;
58338;SDS011;68636;52.704;6.536;2023-06-24T12:30:24;8.02;;;3.60;;
58338;SDS011;68636;52.704;6.536;2023-06-24T12:32:50;7.45;;;3.42;;
58338;SDS011;68636;52.704;6.536;2023-06-24T12:35:16;8.10;;;3.53;;
58338;SDS011;68636;52.704;6.536;2023-06-24T12:37:42;5.43;;;3.20;;
58338;SDS011;68636;52.704;6.536;2023-06-24T12:40:10;12.60;;;3.60;;
58338;SDS011;68636;52.704;6.536;2023-06-24T12:47:28;7.03;;;2.80;;
58338;SDS011;68636;52.704;6.536;2023-06-24T12:49:53;7.13;;;3.28;;
58338;SDS011;68636;52.704;6.536;2023-06-24T12:52:19;7.15;;;3.03;;
58338;SDS011;68636;52.704;6.536;2023-06-24T12:54:45;6.35;;;2.50;;
58338;SDS011;68636;52.704;6.536;2023-06-24T12:57:11;7.18;;;2.85;;
58338;SDS011;68636;52.704;6.536;2023-06-24T12:59:36;7.20;;;2.90;;
58338;SDS011;68636;52.704;6.536;2023-06-24T13:02:03;5.47;;;2.63;;
58338;SDS011;68636;52.704;6.536;2023-06-24T13:04:29;5.68;;;2.85;;
58338;SDS011;68636;52.704;6.536;2023-06-24T13:06:54;8.77;;;2.95;;
58338;SDS011;68636;52.704;6.536;2023-06-24T13:09:20;5.93;;;2.70;;
58338;SDS011;68636;52.704;6.536;2023-06-24T13:11:46;5.15;;;2.70;;
58338;SDS011;68636;52.704;6.536;2023-06-24T13:14:13;5.75;;;2.78;;
58338;SDS011;68636;52.704;6.536;2023-06-24T13:16:39;7.57;;;2.78;;
58338;SDS011;68636;52.704;6.536;2023-06-24T13:19:05;6.70;;;2.78;;
58338;SDS011;68636;52.704;6.536;2023-06-24T13:21:30;5.72;;;2.80;;
58338;SDS011;68636;52.704;6.536;2023-06-24T13:23:56;7.75;;;3.40;;
58338;SDS011;68636;52.704;6.536;2023-06-24T13:26:22;5.10;;;2.80;;
58338;SDS011;68636;52.704;6.536;2023-06-24T13:28:49;5.15;;;2.85;;
58338;SDS011;68636;52.704;6.536;2023-06-24T13:31:15;10.40;;;3.42;;
58338;SDS011;68636;52.704;6.536;2023-06-24T13:33:41;7.80;;;3.90;;
58338;SDS011;68636;52.704;6.536;2023-06-24T13:36:07;9.20;;;3.40;;
58338;SDS011;68636;52.704;6.536;2023-06-24T13:38:50;9.40;;;3.90;;
58338;SDS011;68636;52.704;6.536;2023-06-24T13:41:16;7.07;;;3.03;;
58338;SDS011;68636;52.704;6.536;2023-06-24T13:43:41;5.43;;;3.25;;
58338;SDS011;68636;52.704;6.536;2023-06-24T13:46:07;6.05;;;3.35;;
58338;SDS011;68636;52.704;6.536;2023-06-24T13:48:33;5.78;;;2.95;;
58338;SDS011;68636;52.704;6.536;2023-06-24T13:50:58;5.93;;;2.50;;
58338;SDS011;68636;52.704;6.536;2023-06-24T13:53:24;5.45;;;2.90;;
58338;SDS011;68636;52.704;6.536;2023-06-24T13:55:50;6.13;;;2.50;;
58338;SDS011;68636;52.704;6.536;2023-06-24T13:58:16;7.88;;;2.90;;
58338;SDS011;68636;52.704;6.536;2023-06-24T14:00:42;8.35;;;3.38;;
58338;SDS011;68636;52.704;6.536;2023-06-24T14:03:07;5.88;;;2.97;;
58338;SDS011;68636;52.704;6.536;2023-06-24T14:05:33;5.93;;;3.33;;
58338;SDS011;68636;52.704;6.536;2023-06-24T14:07:59;5.97;;;2.67;;
58338;SDS011;68636;52.704;6.536;2023-06-24T14:10:25;5.85;;;2.45;;
58338;SDS011;68636;52.704;6.536;2023-06-24T14:12:50;6.32;;;2.58;;
58338;SDS011;68636;52.704;6.536;2023-06-24T14:15:16;5.65;;;2.60;;
58338;SDS011;68636;52.704;6.536;2023-06-24T14:17:42;5.95;;;3.03;;
58338;SDS011;68636;52.704;6.536;2023-06-24T14:20:07;5.95;;;2.83;;
58338;SDS011;68636;52.704;6.536;2023-06-24T14:22:34;5.53;;;2.97;;
58338;SDS011;68636;52.704;6.536;2023-06-24T14:24:59;6.10;;;3.20;;
58338;SDS011;68636;52.704;6.536;2023-06-24T14:27:25;5.80;;;3.38;;
58338;SDS011;68636;52.704;6.536;2023-06-24T14:29:51;9.02;;;3.45;;
58338;SDS011;68636;52.704;6.536;2023-06-24T14:32:16;7.63;;;3.50;;
58338;SDS011;68636;52.704;6.536;2023-06-24T14:34:42;8.18;;;3.40;;
58338;SDS011;68636;52.704;6.536;2023-06-24T14:37:08;8.60;;;3.50;;
58338;SDS011;68636;52.704;6.536;2023-06-24T14:39:34;6.07;;;3.20;;
58338;SDS011;68636;52.704;6.536;2023-06-24T14:41:59;8.23;;;3.30;;
58338;SDS011;68636;52.704;6.536;2023-06-24T14:44:25;4.85;;;2.83;;
58338;SDS011;68636;52.704;6.536;2023-06-24T14:46:51;6.05;;;3.13;;
58338;SDS011;68636;52.704;6.536;2023-06-24T14:49:16;6.13;;;3.30;;
58338;SDS011;68636;52.704;6.536;2023-06-24T14:51:42;5.97;;;3.25;;
58338;SDS011;68636;52.704;6.536;2023-06-24T14:54:08;6.65;;;2.80;;
58338;SDS011;68636;52.704;6.536;2023-06-24T14:56:34;7.07;;;3.55;;
58338;SDS011;68636;52.704;6.536;2023-06-24T14:58:59;6.80;;;2.90;;
58338;SDS011;68636;52.704;6.536;2023-06-24T15:01:25;5.25;;;2.58;;
58338;SDS011;68636;52.704;6.536;2023-06-24T15:03:51;5.05;;;2.60;;
58338;SDS011;68636;52.704;6.536;2023-06-24T15:06:17;5.25;;;3.13;;
58338;SDS011;68636;52.704;6.536;2023-06-24T15:08:42;6.35;;;2.97;;
58338;SDS011;68636;52.704;6.536;2023-06-24T15:11:08;6.70;;;2.65;;
58338;SDS011;68636;52.704;6.536;2023-06-24T15:13:34;5.05;;;2.58;;
58338;SDS011;68636;52.704;6.536;2023-06-24T15:16:00;5.63;;;2.53;;
58338;SDS011;68636;52.704;6.536;2023-06-24T15:18:26;5.50;;;2.70;;
58338;SDS011;68636;52.704;6.536;2023-06-24T15:20:51;5.10;;;2.50;;
58338;SDS011;68636;52.704;6.536;2023-06-24T15:23:19;7.18;;;3.58;;
58338;SDS011;68636;52.704;6.536;2023-06-24T15:25:44;6.40;;;2.78;;
58338;SDS011;68636;52.704;6.536;2023-06-24T15:28:10;6.80;;;3.45;;
58338;SDS011;68636;52.704;6.536;2023-06-24T15:30:36;7.43;;;2.92;;
58338;SDS011;68636;52.704;6.536;2023-06-24T15:33:01;6.53;;;2.97;;
58338;SDS011;68636;52.704;6.536;2023-06-24T15:35:28;6.03;;;2.95;;
58338;SDS011;68636;52.704;6.536;2023-06-24T15:37:53;7.00;;;3.55;;